Time;durP1;ratioP1;P1;durP2;ratioP2;P2;SDS_P1;SDS_P2;PMS_P1;PMS_P2;Temp;Humidity;BMP_temperature;BMP_pressure;BME280_temperature;BME280_humidity;BME280_pressure;Samples;Min_cycle;Max_cycle;Signal;HPM_P1;HPM_P2
2019/09/09 00:02:08;;;;;;;1.8;1.4;;;;;;;;;;;;;
2019/09/09 00:04:37;;;;;;;2.1;1.2;;;;;;;;;;;;;
2019/09/09 00:06:59;;;;;;;2.6;1.1;;;;;;;;;;;;;
2019/09/09 00:09:25;;;;;;;1.3;0.9;;;;;;;;;;;;;
2019/09/09 00:11:49;;;;;;;2.5;0.8;;;;;;;;;;;;;
2019/09/09 00:14:18;;;;;;;1;0.7;;;;;;;;;;;;;
2019/09/09 00:16:42;;;;;;;1.1;0.6;;;;;;;;;;;;;
2019/09/09 00:19:05;;;;;;;0.7;0.6;;;;;;;;;;;;;
2019/09/09 00:21:29;;;;;;;1.4;0.6;;;;;;;;;;;;;
2019/09/09 00:23:59;;;;;;;1.9;0.7;;;;;;;;;;;;;
2019/09/09 00:26:22;;;;;;;0.9;0.6;;;;;;;;;;;;;
2019/09/09 00:28:46;;;;;;;1.5;0.6;;;;;;;;;;;;;
2019/09/09 00:31:11;;;;;;;0.8;0.6;;;;;;;;;;;;;
2019/09/09 00:33:36;;;;;;;1.4;1;;;;;;;;;;;;;
2019/09/09 00:36:05;;;;;;;1.4;1;;;;;;;;;;;;;
2019/09/09 00:38:27;;;;;;;1.5;1.1;;;;;;;;;;;;;
2019/09/09 00:40:53;;;;;;;1.7;0.9;;;;;;;;;;;;;
2019/09/09 00:43:18;;;;;;;1.8;1.2;;;;;;;;;;;;;
2019/09/09 00:45:48;;;;;;;1.5;1.2;;;;;;;;;;;;;
2019/09/09 00:48:10;;;;;;;2.3;1.3;;;;;;;;;;;;;
2019/09/09 00:50:34;;;;;;;2.8;1.5;;;;;;;;;;;;;
2019/09/09 00:53:00;;;;;;;1.8;1.5;;;;;;;;;;;;;
2019/09/09 00:55:29;;;;;;;1.7;1.4;;;;;;;;;;;;;
2019/09/09 00:57:51;;;;;;;1.9;1.5;;;;;;;;;;;;;
2019/09/09 01:00:15;;;;;;;1.9;1.3;;;;;;;;;;;;;
2019/09/09 01:02:46;;;;;;;1.8;1.2;;;;;;;;;;;;;
2019/09/09 01:05:06;;;;;;;2.3;1.4;;;;;;;;;;;;;
2019/09/09 01:07:38;;;;;;;2.7;1.4;;;;;;;;;;;;;
2019/09/09 01:09:58;;;;;;;2.3;1.3;;;;;;;;;;;;;
2019/09/09 01:12:21;;;;;;;1.8;1.3;;;;;;;;;;;;;
2019/09/09 01:14:47;;;;;;;1.9;1.4;;;;;;;;;;;;;
2019/09/09 01:17:19;;;;;;;1.5;1.4;;;;;;;;;;;;;
2019/09/09 01:19:44;;;;;;;2.2;1.4;;;;;;;;;;;;;
2019/09/09 01:22:15;;;;;;;1.9;1.4;;;;;;;;;;;;;
2019/09/09 01:24:35;;;;;;;2.3;1.6;;;;;;;;;;;;;
2019/09/09 01:27:00;;;;;;;2.5;1.9;;;;;;;;;;;;;
2019/09/09 01:29:25;;;;;;;2.2;1.8;;;;;;;;;;;;;
2019/09/09 01:31:50;;;;;;;2.3;1.9;;;;;;;;;;;;;
2019/09/09 01:34:18;;;;;;;2;1.6;;;;;;;;;;;;;
2019/09/09 01:36:44;;;;;;;2;1.5;;;;;;;;;;;;;
2019/09/09 01:39:10;;;;;;;2;1.6;;;;;;;;;;;;;
2019/09/09 01:41:31;;;;;;;2.4;1.6;;;;;;;;;;;;;
2019/09/09 01:43:57;;;;;;;1.7;1.6;;;;;;;;;;;;;
2019/09/09 01:46:25;;;;;;;2;1.6;;;;;;;;;;;;;
2019/09/09 01:48:51;;;;;;;2.2;1.7;;;;;;;;;;;;;
2019/09/09 01:51:13;;;;;;;2.6;1.5;;;;;;;;;;;;;
2019/09/09 01:53:37;;;;;;;2;1.4;;;;;;;;;;;;;
2019/09/09 01:56:02;;;;;;;2.9;1.4;;;;;;;;;;;;;
2019/09/09 01:58:30;;;;;;;1.8;1.5;;;;;;;;;;;;;
2019/09/09 02:00:58;;;;;;;1.9;1;;;;;;;;;;;;;
2019/09/09 02:03:21;;;;;;;1.4;1;;;;;;;;;;;;;
2019/09/09 02:05:43;;;;;;;2;0.8;;;;;;;;;;;;;
2019/09/09 02:08:09;;;;;;;1.1;1;;;;;;;;;;;;;
2019/09/09 02:10:34;;;;;;;2.6;0.9;;;;;;;;;;;;;
2019/09/09 02:15:26;;;;;;;2.9;0.9;;;;;;;;;;;;;
2019/09/09 02:17:51;;;;;;;2;1;;;;;;;;;;;;;
2019/09/09 02:20:15;;;;;;;1.7;1.1;;;;;;;;;;;;;
2019/09/09 02:22:40;;;;;;;2.9;1.1;;;;;;;;;;;;;
2019/09/09 02:25:04;;;;;;;2.1;0.9;;;;;;;;;;;;;
2019/09/09 02:27:35;;;;;;;2.6;0.9;;;;;;;;;;;;;
2019/09/09 02:30:22;;;;;;;5;1.1;;;;;;;;;;;;;
2019/09/09 02:32:49;;;;;;;1.8;0.9;;;;;;;;;;;;;
2019/09/09 02:35:14;;;;;;;1.1;0.7;;;;;;;;;;;;;
2019/09/09 02:37:36;;;;;;;1;0.8;;;;;;;;;;;;;
2019/09/09 02:40:03;;;;;;;1.4;0.8;;;;;;;;;;;;;
2019/09/09 02:42:30;;;;;;;1.9;0.9;;;;;;;;;;;;;
2019/09/09 02:44:56;;;;;;;1;0.8;;;;;;;;;;;;;
2019/09/09 02:47:19;;;;;;;0.8;0.8;;;;;;;;;;;;;
2019/09/09 02:49:43;;;;;;;1.7;0.9;;;;;;;;;;;;;
2019/09/09 02:52:13;;;;;;;2.2;0.9;;;;;;;;;;;;;
2019/09/09 02:54:39;;;;;;;0.8;0.8;;;;;;;;;;;;;
2019/09/09 02:57:01;;;;;;;1.3;0.8;;;;;;;;;;;;;
2019/09/09 03:02:28;;;;;;;1.3;0.8;;;;;;;;;;;;;
2019/09/09 03:07:16;;;;;;;1.3;0.7;;;;;;;;;;;;;
2019/09/09 03:10:21;;;;;;;2.1;0.6;;;;;;;;;;;;;
2019/09/09 03:12:37;;;;;;;1.1;0.7;;;;;;;;;;;;;
2019/09/09 03:15:04;;;;;;;1.5;0.8;;;;;;;;;;;;;
2019/09/09 03:17:29;;;;;;;1.7;0.8;;;;;;;;;;;;;
2019/09/09 03:19:55;;;;;;;0.8;0.6;;;;;;;;;;;;;
2019/09/09 03:22:25;;;;;;;1;0.8;;;;;;;;;;;;;
2019/09/09 03:24:49;;;;;;;2;0.7;;;;;;;;;;;;;
2019/09/09 03:27:20;;;;;;;0.9;0.6;;;;;;;;;;;;;
2019/09/09 03:29:44;;;;;;;1.1;0.8;;;;;;;;;;;;;
2019/09/09 03:32:09;;;;;;;1.9;0.8;;;;;;;;;;;;;
2019/09/09 03:34:35;;;;;;;2.5;0.8;;;;;;;;;;;;;
2019/09/09 03:37:03;;;;;;;2.2;0.7;;;;;;;;;;;;;
2019/09/09 03:39:26;;;;;;;2.2;0.6;;;;;;;;;;;;;
2019/09/09 03:41:53;;;;;;;2.8;0.5;;;;;;;;;;;;;
2019/09/09 03:44:24;;;;;;;1.5;0.6;;;;;;;;;;;;;
2019/09/09 03:46:48;;;;;;;0.9;0.7;;;;;;;;;;;;;
2019/09/09 03:49:13;;;;;;;1.7;0.9;;;;;;;;;;;;;
2019/09/09 03:51:45;;;;;;;2.6;0.6;;;;;;;;;;;;;
2019/09/09 03:54:09;;;;;;;1.6;0.7;;;;;;;;;;;;;
2019/09/09 03:56:37;;;;;;;0.9;0.6;;;;;;;;;;;;;
2019/09/09 03:58:59;;;;;;;1.8;0.8;;;;;;;;;;;;;
2019/09/09 04:02:55;;;;;;;2.1;0.9;;;;;;;10.24;87.24023;936.356;;;;
2019/09/09 04:05:20;;;;;;;1;0.6;;;;;;;10.31;86.58203;936.3309;;;;
2019/09/09 04:07:49;;;;;;;0.8;0.6;;;;;;;10.21;86.85645;936.2862;;;;
2019/09/09 04:10:15;;;;;;;2.2;0.9;;;;;;;10.21;87.03906;936.2937;;;;
2019/09/09 04:12:51;;;;;;;0.7;0.6;;;;;;;10.22;87.13379;936.2698;;;;
2019/09/09 04:15:13;;;;;;;1.8;0.8;;;;;;;10.34;86.36816;936.3535;;;;
2019/09/09 04:17:43;;;;;;;1.8;0.8;;;;;;;10.4;86.42676;936.3817;;;;
2019/09/09 04:20:08;;;;;;;2.9;0.9;;;;;;;10.39;86.00293;936.3769;;;;
2019/09/09 04:22:40;;;;;;;2;1;;;;;;;10.41;86.47461;936.3979;;;;
2019/09/09 04:25:04;;;;;;;3;0.9;;;;;;;10.43;86.49121;936.3734;;;;
2019/09/09 04:27:33;;;;;;;1.2;0.6;;;;;;;10.38;86.45703;936.3903;;;;
2019/09/09 04:30:06;;;;;;;2.1;0.8;;;;;;;10.38;86.67383;936.4484;;;;
2019/09/09 04:32:31;;;;;;;1.1;0.7;;;;;;;10.4;86.44922;936.3864;;;;
2019/09/09 04:34:58;;;;;;;2.6;0.9;;;;;;;10.35;87.19336;936.3408;;;;
2019/09/09 04:37:30;;;;;;;2.3;1;;;;;;;10.4;86.46289;936.3053;;;;
2019/09/09 04:40:01;;;;;;;2.2;0.9;;;;;;;10.36;86.65723;936.3209;;;;
2019/09/09 04:42:32;;;;;;;3.3;1.3;;;;;;;10.46;86.20898;936.3466;;;;
2019/09/09 04:45:29;;;;;;;4.4;1;;;;;;;10.43;85.91992;936.2852;;;;
2019/09/09 04:47:50;;;;;;;3.4;1.1;;;;;;;10.39;86.50488;936.2336;;;;
2019/09/09 04:50:22;;;;;;;2.7;0.8;;;;;;;10.4;86.59961;936.2241;;;;
2019/09/09 04:52:51;;;;;;;2.5;1.2;;;;;;;10.45;86.50586;936.2837;;;;
2019/09/09 04:55:17;;;;;;;1.8;1.2;;;;;;;10.47;86.71484;936.3132;;;;
2019/09/09 04:57:43;;;;;;;5.9;2.4;;;;;;;10.51;86.50684;936.2856;;;;
2019/09/09 05:00:32;;;;;;;4.3;2.9;;;;;;;10.58;86.27051;936.3059;;;;
2019/09/09 05:03:00;;;;;;;3;1.9;;;;;;;10.56;86.13965;936.3488;;;;
2019/09/09 05:05:30;;;;;;;4.8;3.5;;;;;;;10.49;86.74121;936.323;;;;
2019/09/09 05:08:03;;;;;;;2.1;1.6;;;;;;;10.5;86.15137;936.3469;;;;
2019/09/09 05:10:33;;;;;;;2.7;1.7;;;;;;;10.55;86.18164;936.3813;;;;
2019/09/09 05:13:06;;;;;;;2.1;1.6;;;;;;;10.55;85.93262;936.2842;;;;
2019/09/09 05:15:40;;;;;;;4.1;3.1;;;;;;;10.58;85.87109;936.4261;;;;
2019/09/09 05:18:06;;;;;;;4;2.3;;;;;;;10.51;86.25586;936.421;;;;
2019/09/09 05:20:37;;;;;;;22.6;16.3;;;;;;;10.4;86.94238;936.3785;;;;
2019/09/09 05:23:08;;;;;;;11.2;9.1;;;;;;;10.16;87.88379;936.4247;;;;
2019/09/09 05:25:41;;;;;;;21.3;18.2;;;;;;;10.26;88.04297;936.3457;;;;
2019/09/09 05:28:14;;;;;;;8.2;6.5;;;;;;;10.26;88.27051;936.4333;;;;
2019/09/09 05:30:40;;;;;;;4.7;3.1;;;;;;;10.34;87.78516;936.4188;;;;
2019/09/09 05:33:13;;;;;;;4.8;4.2;;;;;;;10.35;87.76465;936.5222;;;;
2019/09/09 05:35:47;;;;;;;4.6;2.9;;;;;;;10.46;87.22559;936.4358;;;;
2019/09/09 05:38:15;;;;;;;8.7;5.7;;;;;;;10.47;87.59277;936.3912;;;;
2019/09/09 05:40:38;;;;;;;5;4.5;;;;;;;10.57;86.90625;936.4699;;;;
2019/09/09 05:43:11;;;;;;;4.2;1.6;;;;;;;10.34;88.04785;936.4648;;;;
2019/09/09 05:45:36;;;;;;;11;8.2;;;;;;;10.36;86.48633;936.5787;;;;
2019/09/09 05:48:05;;;;;;;119.6;68.7;;;;;;;10.44;87.44043;936.4333;;;;
2019/09/09 05:50:29;;;;;;;140.9;77.2;;;;;;;10.48;87.23047;936.4573;;;;
2019/09/09 05:52:53;;;;;;;17.4;10.4;;;;;;;10.59;87.17285;936.6046;;;;
2019/09/09 05:55:18;;;;;;;10.8;7.7;;;;;;;10.58;87.10254;936.5894;;;;
2019/09/09 05:57:50;;;;;;;6.3;5.7;;;;;;;10.7;86.81738;936.6247;;;;
2019/09/09 06:00:15;;;;;;;3.4;3.1;;;;;;;10.76;86.19043;936.5684;;;;
2019/09/09 06:02:48;;;;;;;5;3.2;;;;;;;10.82;86.76074;936.6591;;;;
2019/09/09 06:05:17;;;;;;;10.5;5.6;;;;;;;10.84;86.7666;936.6792;;;;
2019/09/09 06:07:47;;;;;;;27.4;16.9;;;;;;;10.9;86.34473;936.6707;;;;
2019/09/09 06:10:23;;;;;;;22.9;13.8;;;;;;;10.95;86.35352;936.7267;;;;
2019/09/09 06:12:49;;;;;;;5.9;3.2;;;;;;;10.98;85.79004;936.6703;;;;
2019/09/09 06:15:22;;;;;;;6.6;3.2;;;;;;;10.96;86.41504;936.6774;;;;
2019/09/09 06:17:51;;;;;;;3.3;2.3;;;;;;;10.97;86.08301;936.6783;;;;
2019/09/09 06:20:22;;;;;;;3.4;2;;;;;;;11.02;86.27734;936.717;;;;
2019/09/09 06:22:48;;;;;;;2.2;0.9;;;;;;;10.84;86.43555;936.66;;;;
2019/09/09 06:25:21;;;;;;;3.8;1.3;;;;;;;10.92;86.71289;936.6867;;;;
2019/09/09 06:27:51;;;;;;;2.8;1.1;;;;;;;10.97;86.98828;936.742;;;;
2019/09/09 06:30:18;;;;;;;2.8;1.1;;;;;;;11;86.19141;936.7054;;;;
2019/09/09 06:32:48;;;;;;;2.5;1.4;;;;;;;10.91;86.33496;936.697;;;;
2019/09/09 06:35:20;;;;;;;12.8;7.8;;;;;;;10.98;86.47363;936.6847;;;;
2019/09/09 06:37:46;;;;;;;5.1;3;;;;;;;11.05;86.30566;936.8208;;;;
2019/09/09 06:40:19;;;;;;;2.7;1.7;;;;;;;11.15;86.07324;936.8236;;;;
2019/09/09 06:42:49;;;;;;;2.5;1.3;;;;;;;11.19;85.23633;936.8214;;;;
2019/09/09 06:45:13;;;;;;;370;206.7;;;;;;;11.23;84.86621;936.8387;;;;
2019/09/09 06:47:48;;;;;;;3.5;2.1;;;;;;;11.29;84.68359;936.7958;;;;
2019/09/09 06:50:18;;;;;;;6.6;4;;;;;;;11.08;85.61523;936.8544;;;;
2019/09/09 06:52:43;;;;;;;10.2;5.1;;;;;;;11.13;85.48633;936.8753;;;;
2019/09/09 06:55:16;;;;;;;62.4;32.1;;;;;;;11.18;85.95508;936.9059;;;;
2019/09/09 06:57:46;;;;;;;4.3;2.9;;;;;;;11.19;85.81934;937.0103;;;;
2019/09/09 07:00:13;;;;;;;5;2;;;;;;;11.22;85.85938;936.9088;;;;
2019/09/09 07:02:42;;;;;;;8.4;4.8;;;;;;;11.28;85.94043;937.0007;;;;
2019/09/09 07:05:09;;;;;;;5.9;3.2;;;;;;;11.42;86.03613;937.051;;;;
2019/09/09 07:10:43;;;;;;;4.6;2.9;;;;;;;11.51;83.73047;937.0362;;;;
2019/09/09 07:13:06;;;;;;;15.6;9.3;;;;;;;11.62;83.53613;936.9922;;;;
2019/09/09 07:15:39;;;;;;;3.3;2.3;;;;;;;11.73;82.22852;937.0467;;;;
2019/09/09 07:18:13;;;;;;;5.3;3.1;;;;;;;11.73;83.88867;937.1035;;;;
2019/09/09 07:20:41;;;;;;;3.3;2;;;;;;;11.56;85.5498;937.0619;;;;
2019/09/09 07:23:14;;;;;;;2.3;1.4;;;;;;;11.45;85.2627;937.0886;;;;
2019/09/09 07:25:46;;;;;;;3.4;1.3;;;;;;;11.63;83.67285;937.1414;;;;
2019/09/09 07:28:11;;;;;;;1.6;1.1;;;;;;;11.7;83.06934;937.0396;;;;
2019/09/09 07:30:36;;;;;;;3.2;1.6;;;;;;;11.85;81.25488;937.1465;;;;
2019/09/09 07:33:04;;;;;;;2.7;1.4;;;;;;;11.93;81.10938;937.1325;;;;
2019/09/09 07:35:37;;;;;;;2.1;1.4;;;;;;;11.94;80.19336;937.0662;;;;
2019/09/09 07:38:02;;;;;;;21.4;14.1;;;;;;;12.02;81.29785;937.1306;;;;
2019/09/09 07:40:35;;;;;;;10.7;7.2;;;;;;;12.03;80.14258;937.1872;;;;
2019/09/09 07:43:03;;;;;;;3.3;1.9;;;;;;;12.09;82.40039;937.1563;;;;
2019/09/09 07:45:31;;;;;;;3.9;1.4;;;;;;;12.25;80.88184;937.2325;;;;
2019/09/09 07:48:02;;;;;;;2.5;1.5;;;;;;;12.08;81.97461;937.1633;;;;
2019/09/09 07:50:27;;;;;;;1.8;1;;;;;;;12.23;79.96191;937.1606;;;;
2019/09/09 07:52:56;;;;;;;7.4;3.8;;;;;;;12.41;81.99219;937.2274;;;;
2019/09/09 07:55:36;;;;;;;1.8;1.1;;;;;;;12.47;79.59375;937.2067;;;;
2019/09/09 07:58:02;;;;;;;10.9;6.3;;;;;;;12.44;83.22266;937.205;;;;
2019/09/09 08:00:33;;;;;;;6.1;4.4;;;;;;;12.59;77.20605;937.1995;;;;
2019/09/09 08:03:10;;;;;;;2.8;1.8;;;;;;;12.8;77.10547;937.2723;;;;
2019/09/09 08:05:34;;;;;;;58.8;39.1;;;;;;;12.64;76.7334;937.2589;;;;
2019/09/09 08:07:58;;;;;;;4.4;2.8;;;;;;;12.66;77.8252;937.3339;;;;
2019/09/09 08:10:30;;;;;;;23.8;17.9;;;;;;;12.54;76.00488;937.2881;;;;
2019/09/09 08:12:58;;;;;;;7.6;5.9;;;;;;;12.32;81.01953;937.2678;;;;
2019/09/09 08:15:26;;;;;;;8;5.5;;;;;;;12.46;78.36523;937.3065;;;;
2019/09/09 08:17:57;;;;;;;3.2;2.4;;;;;;;12.49;76.84473;937.2786;;;;
2019/09/09 08:20:30;;;;;;;2.1;1.1;;;;;;;12.63;79.35742;937.2517;;;;
2019/09/09 08:22:59;;;;;;;2.9;1.5;;;;;;;12.75;79.38086;937.3555;;;;
2019/09/09 08:25:23;;;;;;;3.2;2.3;;;;;;;12.92;78.2627;937.3572;;;;
2019/09/09 08:27:50;;;;;;;1.5;1.2;;;;;;;13.03;74.52734;937.3286;;;;
2019/09/09 08:30:19;;;;;;;2.1;0.8;;;;;;;13.09;78.48828;937.3933;;;;
2019/09/09 08:32:50;;;;;;;3.6;1.1;;;;;;;12.8;80.23828;937.385;;;;
2019/09/09 08:35:14;;;;;;;2.3;1.2;;;;;;;12.94;78.8877;937.3613;;;;
2019/09/09 08:40:11;;;;;;;2.6;0.9;;;;;;;13.26;78.14063;937.3823;;;;
2019/09/09 08:42:40;;;;;;;1.9;1.2;;;;;;;13.38;78.68066;937.434;;;;
2019/09/09 08:45:07;;;;;;;2.7;1.5;;;;;;;13.32;78.93164;937.407;;;;
2019/09/09 08:47:41;;;;;;;2.6;1.1;;;;;;;13.5;79.40332;937.4003;;;;
2019/09/09 08:50:02;;;;;;;1.4;1;;;;;;;13.45;78.3457;937.3557;;;;
2019/09/09 08:52:30;;;;;;;1.9;1;;;;;;;13.58;76.23145;937.4665;;;;
2019/09/09 08:54:58;;;;;;;1.6;0.9;;;;;;;13.76;75.10059;937.3965;;;;
2019/09/09 08:57:30;;;;;;;2.4;1.1;;;;;;;13.91;75.80469;937.4561;;;;
2019/09/09 08:59:54;;;;;;;2.7;0.7;;;;;;;13.69;72.87012;937.4255;;;;
2019/09/09 09:02:26;;;;;;;0.7;0.5;;;;;;;13.67;75.12012;937.4296;;;;
2019/09/09 09:04:58;;;;;;;1;0.8;;;;;;;13.87;72.69238;937.3978;;;;
2019/09/09 09:07:28;;;;;;;2.1;1.5;;;;;;;14;71.73633;937.3549;;;;
2019/09/09 09:10:02;;;;;;;1.7;1.3;;;;;;;13.91;73.6543;937.4601;;;;
2019/09/09 09:12:28;;;;;;;0.7;0.4;;;;;;;13.64;70.35449;937.4345;;;;
2019/09/09 09:14:54;;;;;;;1.6;0.6;;;;;;;13.57;73.37793;937.4601;;;;
2019/09/09 09:17:31;;;;;;;0.5;0.3;;;;;;;13.49;73.29492;937.4211;;;;
2019/09/09 09:20:07;;;;;;;1;0.7;;;;;;;13.46;72.25586;937.4476;;;;
2019/09/09 09:22:31;;;;;;;1.8;0.7;;;;;;;13.62;75.27148;937.4483;;;;
2019/09/09 09:25:01;;;;;;;0.9;0.5;;;;;;;13.51;74.65625;937.3995;;;;
2019/09/09 09:27:32;;;;;;;1.4;0.5;;;;;;;13.68;74.15527;937.4464;;;;
2019/09/09 09:30:03;;;;;;;1.9;0.6;;;;;;;13.54;74.41992;937.5146;;;;
2019/09/09 09:32:31;;;;;;;1.1;0.7;;;;;;;13.6;72.11816;937.4448;;;;
2019/09/09 09:35:13;;;;;;;2.3;0.9;;;;;;;13.71;76.18555;937.5239;;;;
2019/09/09 09:37:38;;;;;;;2;0.6;;;;;;;13.63;71.97461;937.5209;;;;
2019/09/09 09:40:06;;;;;;;1.3;0.5;;;;;;;13.62;73.11133;937.5019;;;;
2019/09/09 09:42:29;;;;;;;1.9;0.7;;;;;;;13.65;71.30859;937.5706;;;;
2019/09/09 09:44:54;;;;;;;1.5;0.7;;;;;;;13.67;70.42773;937.5297;;;;
2019/09/09 09:47:24;;;;;;;0.6;0.5;;;;;;;13.66;75.1084;937.5281;;;;
2019/09/09 09:49:51;;;;;;;1.8;1.3;;;;;;;13.76;73.46777;937.5133;;;;
2019/09/09 09:52:20;;;;;;;1.5;1.2;;;;;;;13.94;71.38184;937.5304;;;;
2019/09/09 09:54:52;;;;;;;3.1;1.6;;;;;;;14.01;72.80762;937.5076;;;;
2019/09/09 09:57:16;;;;;;;1.9;1.3;;;;;;;14.02;71.24414;937.4519;;;;
2019/09/09 09:59:39;;;;;;;3;1.7;;;;;;;14;71.86328;937.4965;;;;
2019/09/09 10:02:12;;;;;;;1.7;1.1;;;;;;;13.74;71.22168;937.4509;;;;
2019/09/09 10:04:48;;;;;;;0.8;0.6;;;;;;;13.79;72.36914;937.5524;;;;
2019/09/09 10:07:29;;;;;;;1.3;0.7;;;;;;;13.93;72.4834;937.5328;;;;
2019/09/09 10:09:53;;;;;;;2.3;1.1;;;;;;;14.13;75.19922;937.4977;;;;
2019/09/09 10:12:23;;;;;;;2.1;0.9;;;;;;;14.08;74.08496;937.4651;;;;
2019/09/09 10:14:45;;;;;;;0.6;0.5;;;;;;;14.18;71.61621;937.5687;;;;
2019/09/09 10:17:12;;;;;;;1.5;0.6;;;;;;;14.07;70.56055;937.5861;;;;
2019/09/09 10:19:42;;;;;;;0.8;0.5;;;;;;;14.17;70.58984;937.5103;;;;
2019/09/09 10:22:07;;;;;;;2.3;1.2;;;;;;;14.36;70.37891;937.5231;;;;
2019/09/09 10:24:33;;;;;;;0.5;0.4;;;;;;;14.45;68.50391;937.5503;;;;
2019/09/09 10:27:01;;;;;;;0.3;0.2;;;;;;;14.6;68.68848;937.3801;;;;
2019/09/09 10:29:35;;;;;;;0.3;0.3;;;;;;;14.76;67.45703;937.4056;;;;
2019/09/09 10:32:07;;;;;;;1;0.4;;;;;;;14.91;66.33887;937.3983;;;;
2019/09/09 10:34:39;;;;;;;0.6;0.6;;;;;;;15.11;64.40723;937.4329;;;;
2019/09/09 10:37:13;;;;;;;1.3;0.8;;;;;;;14.95;66.34473;937.4645;;;;
2019/09/09 10:39:47;;;;;;;0.9;0.5;;;;;;;14.88;68.19141;937.3537;;;;
2019/09/09 10:42:14;;;;;;;0.9;0.7;;;;;;;15.16;68.72949;937.3194;;;;
2019/09/09 10:44:38;;;;;;;1.2;0.7;;;;;;;15.53;69.75879;937.3016;;;;
2019/09/09 10:52:30;;;;;;;0.6;0.5;;;;;;;16.08;64.67676;937.2672;;;;
2019/09/09 10:55:02;;;;;;;0.6;0.5;;;;;;;16.35;63.29395;937.2676;;;;
2019/09/09 10:57:33;;;;;;;0.9;0.5;;;;;;;16.44;65.50586;937.2981;;;;
2019/09/09 10:59:56;;;;;;;1.4;0.8;;;;;;;16.47;65.49805;937.2422;;;;
2019/09/09 11:02:23;;;;;;;1.5;0.5;;;;;;;16.51;64.08008;937.1838;;;;
2019/09/09 11:04:53;;;;;;;1.4;0.7;;;;;;;16.47;64.15527;937.2566;;;;
2019/09/09 11:07:35;;;;;;;1.4;0.6;;;;;;;16.36;63.95508;937.2949;;;;
2019/09/09 11:10:02;;;;;;;0.9;0.7;;;;;;;16.52;65.30957;937.2896;;;;
2019/09/09 11:12:32;;;;;;;1.2;0.6;;;;;;;16.71;62.8252;937.2495;;;;
2019/09/09 11:15:05;;;;;;;1.6;0.4;;;;;;;16.73;61.86621;937.1897;;;;
2019/09/09 11:17:31;;;;;;;3.1;0.5;;;;;;;16.77;62.12695;937.2388;;;;
2019/09/09 11:22:36;;;;;;;0.9;0.4;;;;;;;16.44;60.10059;937.282;;;;
2019/09/09 11:25:09;;;;;;;1.5;0.6;;;;;;;16.28;62.60059;937.1635;;;;
2019/09/09 11:27:40;;;;;;;0.4;0.3;;;;;;;15.7;61.62891;937.3099;;;;
2019/09/09 11:30:08;;;;;;;0.6;0.4;;;;;;;15.33;64.26758;937.3371;;;;
2019/09/09 11:32:36;;;;;;;2.1;0.3;;;;;;;15.56;64.06934;937.2547;;;;
2019/09/09 11:35:08;;;;;;;1.3;0.3;;;;;;;15.35;64.8125;937.3722;;;;
2019/09/09 11:37:40;;;;;;;0.9;0.2;;;;;;;15.61;62.02051;937.2745;;;;
2019/09/09 11:40:05;;;;;;;0.9;0.2;;;;;;;15.68;62.64258;937.1344;;;;
2019/09/09 11:42:34;;;;;;;0.7;0.2;;;;;;;15.64;66.27539;937.2255;;;;
2019/09/09 11:45:08;;;;;;;0.7;0.5;;;;;;;16.22;67.58887;937.2018;;;;
2019/09/09 11:47:35;;;;;;;2.1;1;;;;;;;16.99;62.54004;937.1616;;;;
2019/09/09 11:50:04;;;;;;;2.5;0.5;;;;;;;18.66;57.26465;937.0649;;;;
2019/09/09 11:52:29;;;;;;;0.4;0.2;;;;;;;20.51;52.87988;936.9927;;;;
2019/09/09 11:55:00;;;;;;;0.4;0.1;;;;;;;22.7;45.37012;936.9374;;;;
2019/09/09 11:57:36;;;;;;;0.9;0.2;;;;;;;24.83;40.19824;936.8873;;;;
2019/09/09 12:00:06;;;;;;;0.8;0.2;;;;;;;26.36;36.3584;936.9656;;;;
2019/09/09 12:02:31;;;;;;;0.6;0.1;;;;;;;27.83;34.28027;936.8992;;;;
2019/09/09 12:05:01;;;;;;;0.7;0.1;;;;;;;28.81;31.35645;936.9246;;;;
2019/09/09 12:07:37;;;;;;;0.4;0.2;;;;;;;29.39;30.80078;936.9079;;;;
2019/09/09 12:10:10;;;;;;;0.1;0.1;;;;;;;29.19;30.65723;936.9278;;;;
2019/09/09 12:12:39;;;;;;;0.4;0.1;;;;;;;27.24;31.7334;936.9492;;;;
2019/09/09 12:15:05;;;;;;;0.2;0.2;;;;;;;27.55;34.1875;936.9132;;;;
2019/09/09 12:17:34;;;;;;;0.6;0.3;;;;;;;27.73;32.70605;936.8293;;;;
2019/09/09 12:20:01;;;;;;;0.2;0.2;;;;;;;30.25;29.78516;936.8524;;;;
2019/09/09 12:22:29;;;;;;;1.1;0.6;;;;;;;30.4;28.79199;936.8865;;;;
2019/09/09 12:24:52;;;;;;;0.4;0.1;;;;;;;30.4;29.52051;936.9413;;;;
2019/09/09 12:27:23;;;;;;;1.9;0.2;;;;;;;30.15;29.49219;936.8792;;;;
2019/09/09 12:29:48;;;;;;;0.6;0.2;;;;;;;28.19;31.52734;936.8533;;;;
2019/09/09 12:32:22;;;;;;;0.4;0.2;;;;;;;26.12;35.47461;936.9676;;;;
2019/09/09 12:34:56;;;;;;;0.9;0.3;;;;;;;26.25;35.68652;936.9324;;;;
2019/09/09 12:37:17;;;;;;;0.6;0.2;;;;;;;25.95;35.88672;936.875;;;;
2019/09/09 12:39:41;;;;;;;0.7;0.3;;;;;;;24.54;39.0752;936.8951;;;;
2019/09/09 12:42:07;;;;;;;0.5;0.3;;;;;;;23.11;41.11133;936.8797;;;;
2019/09/09 12:44:37;;;;;;;0.2;0.2;;;;;;;21.96;43.8291;936.9796;;;;
2019/09/09 12:47:01;;;;;;;0.3;0.2;;;;;;;22.12;43.93945;936.9175;;;;
2019/09/09 12:49:33;;;;;;;1.6;0.2;;;;;;;24.15;39.13477;936.9038;;;;
2019/09/09 12:52:01;;;;;;;2.9;0.5;;;;;;;25.26;36.68164;936.8757;;;;
2019/09/09 12:54:27;;;;;;;1;0.4;;;;;;;24.88;39.28125;936.8681;;;;
2019/09/09 12:56:53;;;;;;;0.5;0.3;;;;;;;22.95;42.6709;936.8728;;;;
2019/09/09 12:59:26;;;;;;;0.6;0.4;;;;;;;21.77;43.92773;936.8806;;;;
2019/09/09 13:02:04;;;;;;;0.3;0.3;;;;;;;20.57;46.71777;936.859;;;;
2019/09/09 13:04:28;;;;;;;0.6;0.4;;;;;;;19.82;49.08789;936.9358;;;;
2019/09/09 13:06:53;;;;;;;0.6;0.3;;;;;;;19.63;48.07617;936.9151;;;;
2019/09/09 13:09:25;;;;;;;0.3;0.2;;;;;;;19.21;49.23047;936.8041;;;;
2019/09/09 13:12:00;;;;;;;0.5;0.3;;;;;;;19.13;49.30273;936.8408;;;;
2019/09/09 13:14:22;;;;;;;0.4;0.3;;;;;;;19.04;51.22559;936.8594;;;;
2019/09/09 13:16:52;;;;;;;1;0.3;;;;;;;20.46;46.77637;936.7411;;;;
2019/09/09 13:19:23;;;;;;;0.4;0.1;;;;;;;20.13;47.10254;936.7528;;;;
2019/09/09 13:21:47;;;;;;;0.4;0.4;;;;;;;19.93;47.05957;936.7452;;;;
2019/09/09 13:24:12;;;;;;;0.5;0.4;;;;;;;19.81;48.69043;936.7065;;;;
2019/09/09 13:26:43;;;;;;;0.7;0.3;;;;;;;19.96;49.17383;936.7252;;;;
2019/09/09 13:29:14;;;;;;;1.2;0.4;;;;;;;20.07;49.08105;936.7213;;;;
2019/09/09 13:31:42;;;;;;;0.5;0.3;;;;;;;20.15;49.27637;936.6624;;;;
2019/09/09 13:34:15;;;;;;;0.6;0.4;;;;;;;20.78;46.31934;936.6609;;;;
2019/09/09 13:36:43;;;;;;;1.1;0.3;;;;;;;21.04;45.59863;936.6908;;;;
2019/09/09 13:39:11;;;;;;;0.9;0.4;;;;;;;22.05;42.93555;936.6141;;;;
2019/09/09 13:41:43;;;;;;;0.2;0.2;;;;;;;22.99;42.5918;936.5577;;;;
2019/09/09 13:44:19;;;;;;;1.4;0.4;;;;;;;23.87;40.8291;936.5298;;;;
2019/09/09 13:46:47;;;;;;;0.4;0.2;;;;;;;23.27;39.36328;936.5009;;;;
2019/09/09 13:49:10;;;;;;;0.2;0.2;;;;;;;22.56;40.58008;936.475;;;;
2019/09/09 13:51:37;;;;;;;1.2;0.4;;;;;;;22.11;42.8125;936.565;;;;
2019/09/09 13:54:08;;;;;;;0.8;0.5;;;;;;;21.92;44.27148;936.5624;;;;
2019/09/09 13:56:31;;;;;;;1.4;0.4;;;;;;;21.51;42.48633;936.5719;;;;
2019/09/09 13:58:57;;;;;;;2.2;0.5;;;;;;;20.77;45.41797;936.535;;;;
2019/09/09 14:01:24;;;;;;;0.4;0.4;;;;;;;20.42;45.47559;936.4631;;;;
2019/09/09 14:03:50;;;;;;;3.1;0.5;;;;;;;19.88;47.42676;936.4097;;;;
2019/09/09 14:06:16;;;;;;;0.8;0.6;;;;;;;19.19;49.86914;936.3906;;;;
2019/09/09 14:08:49;;;;;;;0.6;0.5;;;;;;;19.32;49.98828;936.3898;;;;
2019/09/09 14:11:09;;;;;;;1.5;0.6;;;;;;;19.08;51.27637;936.3918;;;;
2019/09/09 14:13:32;;;;;;;1.5;0.5;;;;;;;18.66;53.07715;936.4414;;;;
2019/09/09 14:16:04;;;;;;;0.8;0.5;;;;;;;18.8;51.64063;936.3217;;;;
2019/09/09 14:18:29;;;;;;;1.3;0.5;;;;;;;18.61;52.44238;936.3775;;;;
2019/09/09 14:20:57;;;;;;;0.5;0.5;;;;;;;18.84;53.80859;936.3736;;;;
2019/09/09 14:23:33;;;;;;;1.1;0.7;;;;;;;18.95;52.30957;936.3367;;;;
2019/09/09 14:26:02;;;;;;;1.3;0.5;;;;;;;18.71;52.03613;936.3314;;;;
2019/09/09 14:28:26;;;;;;;0.9;0.7;;;;;;;18.89;53.02344;936.3908;;;;
2019/09/09 14:30:58;;;;;;;2.3;0.7;;;;;;;18.92;51.24512;936.3675;;;;
2019/09/09 14:33:23;;;;;;;1;0.6;;;;;;;18.19;52.3457;936.3523;;;;
2019/09/09 14:35:57;;;;;;;1.1;0.6;;;;;;;18.44;52.10938;936.3719;;;;
2019/09/09 14:38:32;;;;;;;2.3;0.6;;;;;;;18.39;52.23047;936.3873;;;;
2019/09/09 14:41:02;;;;;;;1.7;0.7;;;;;;;18.64;53.48145;936.4645;;;;
2019/09/09 14:43:26;;;;;;;0.9;0.7;;;;;;;18.46;52.9375;936.4158;;;;
2019/09/09 14:45:55;;;;;;;0.7;0.6;;;;;;;18.59;53.52246;936.4434;;;;
2019/09/09 14:48:21;;;;;;;1.4;0.8;;;;;;;18.59;54.27832;936.4916;;;;
2019/09/09 14:50:50;;;;;;;1.5;0.6;;;;;;;18.46;53.79785;936.519;;;;
2019/09/09 14:53:14;;;;;;;1.4;0.6;;;;;;;18.29;53.61426;936.4227;;;;
2019/09/09 14:58:13;;;;;;;1.8;0.8;;;;;;;17.9;54.22754;936.4478;;;;
2019/09/09 15:00:37;;;;;;;1.2;0.7;;;;;;;17.77;55.84961;936.3672;;;;
2019/09/09 15:03:05;;;;;;;1.8;0.7;;;;;;;17.73;55.49609;936.4117;;;;
2019/09/09 15:05:31;;;;;;;2.6;0.7;;;;;;;17.54;56.09863;936.3829;;;;
2019/09/09 15:08:02;;;;;;;1.3;0.7;;;;;;;17.63;57.22363;936.382;;;;
2019/09/09 15:10:28;;;;;;;1.4;0.8;;;;;;;17.71;56.00293;936.4581;;;;
2019/09/09 15:12:59;;;;;;;2;0.8;;;;;;;17.68;56.18555;936.4015;;;;
2019/09/09 15:15:32;;;;;;;1.5;0.8;;;;;;;17.67;56.96191;936.4553;;;;
2019/09/09 15:18:03;;;;;;;1.3;0.8;;;;;;;17.57;55.92773;936.4877;;;;
2019/09/09 15:20:27;;;;;;;1.2;0.8;;;;;;;17.48;56.72852;936.3945;;;;
2019/09/09 15:23:01;;;;;;;2.2;0.9;;;;;;;17.25;57.26758;936.4325;;;;
2019/09/09 15:25:30;;;;;;;2.3;0.9;;;;;;;17.11;56.57715;936.4694;;;;
2019/09/09 15:28:03;;;;;;;1.3;1;;;;;;;17.01;57.4209;936.447;;;;
2019/09/09 15:30:26;;;;;;;2.9;1.1;;;;;;;16.93;57.68848;936.4717;;;;
2019/09/09 15:32:58;;;;;;;2.2;1.1;;;;;;;16.77;57.95801;936.4998;;;;
2019/09/09 15:35:22;;;;;;;1.3;0.9;;;;;;;16.63;58.06641;936.4489;;;;
2019/09/09 15:37:48;;;;;;;1.2;1;;;;;;;16.59;58.24609;936.4653;;;;
2019/09/09 15:40:18;;;;;;;0.9;0.8;;;;;;;16.49;57.86328;936.4791;;;;
2019/09/09 15:42:44;;;;;;;1.2;1;;;;;;;16.31;59.30762;936.509;;;;
2019/09/09 15:45:16;;;;;;;1.2;1.1;;;;;;;16.12;60.46094;936.4681;;;;
2019/09/09 15:47:44;;;;;;;2.7;1.2;;;;;;;16.25;61.09473;936.4584;;;;
2019/09/09 15:50:11;;;;;;;2;1.2;;;;;;;16.21;60.5332;936.5342;;;;
2019/09/09 15:52:40;;;;;;;1.7;1.2;;;;;;;16.17;62.9082;936.563;;;;
2019/09/09 15:55:07;;;;;;;2.1;1.3;;;;;;;16.15;61.91016;936.5553;;;;
2019/09/09 15:57:41;;;;;;;1.2;1.1;;;;;;;16.06;61.67969;936.5846;;;;
2019/09/09 16:00:18;;;;;;;2.8;1.4;;;;;;;16.04;62.82031;936.5657;;;;
2019/09/09 16:02:45;;;;;;;2.9;1.2;;;;;;;15.95;62.49609;936.606;;;;
2019/09/09 16:05:20;;;;;;;3.6;1.4;;;;;;;15.88;63.28418;936.5556;;;;
2019/09/09 16:07:48;;;;;;;1.8;1.3;;;;;;;15.74;63.31055;936.4945;;;;